sensor_id;sensor_type;location;lat;lon;timestamp;pressure;altitude;pressure_sealevel;temperature;humidity
60725;BME280;59881;36.722;-4.462;2023-02-02T00:00:49;102052.84;;;6.67;92.67
60725;BME280;59881;36.722;-4.462;2023-02-02T00:03:15;101946.56;;;5.98;92.47
60725;BME280;59881;36.722;-4.462;2023-02-02T00:05:46;102057.22;;;6.66;93.04
60725;BME280;59881;36.722;-4.462;2023-02-02T00:08:12;101930.03;;;5.96;93.23
60725;BME280;59881;36.722;-4.462;2023-02-02T00:10:37;102021.47;;;6.01;92.84
60725;BME280;59881;36.722;-4.462;2023-02-02T00:13:03;101534.94;;;3.59;92.68
60725;BME280;59881;36.722;-4.462;2023-02-02T00:15:28;101997.09;;;6.00;93.32
60725;BME280;59881;36.722;-4.462;2023-02-02T00:17:54;101888.91;;;5.69;92.73
60725;BME280;59881;36.722;-4.462;2023-02-02T00:20:19;101458.63;;;2.38;92.24
60725;BME280;59881;36.722;-4.462;2023-02-02T00:22:46;102035.78;;;6.53;92.70
60725;BME280;59881;36.722;-4.462;2023-02-02T00:25:11;102014.59;;;5.63;92.93
60725;BME280;59881;36.722;-4.462;2023-02-02T00:27:37;102038.31;;;6.55;93.58
60725;BME280;59881;36.722;-4.462;2023-02-02T00:30:03;101884.72;;;5.63;93.28
60725;BME280;59881;36.722;-4.462;2023-02-02T00:32:29;101925.03;;;5.87;92.75
60725;BME280;59881;36.722;-4.462;2023-02-02T00:34:54;102031.53;;;6.49;92.95
60725;BME280;59881;36.722;-4.462;2023-02-02T00:37:20;102033.31;;;6.47;92.73
60725;BME280;59881;36.722;-4.462;2023-02-02T00:39:45;101691.03;;;4.43;92.71
60725;BME280;59881;36.722;-4.462;2023-02-02T00:42:11;102035.09;;;6.47;93.49
60725;BME280;59881;36.722;-4.462;2023-02-02T00:44:36;102041.22;;;6.46;93.05
60725;BME280;59881;36.722;-4.462;2023-02-02T00:47:20;102042.06;;;6.46;93.09
60725;BME280;59881;36.722;-4.462;2023-02-02T00:49:46;101819.06;;;5.08;92.93
60725;BME280;59881;36.722;-4.462;2023-02-02T00:52:12;102032.53;;;6.43;93.30
60725;BME280;59881;36.722;-4.462;2023-02-02T00:54:38;101934.66;;;5.87;93.82
60725;BME280;59881;36.722;-4.462;2023-02-02T00:57:03;102035.16;;;6.43;93.23
60725;BME280;59881;36.722;-4.462;2023-02-02T00:59:29;101663.75;;;4.22;93.29
60725;BME280;59881;36.722;-4.462;2023-02-02T01:01:54;101944.00;;;5.95;93.32
60725;BME280;59881;36.722;-4.462;2023-02-02T01:04:20;101981.69;;;6.21;93.39
60725;BME280;59881;36.722;-4.462;2023-02-02T01:06:45;101919.97;;;5.81;93.19
60725;BME280;59881;36.722;-4.462;2023-02-02T01:09:11;102023.97;;;6.38;93.38
60725;BME280;59881;36.722;-4.462;2023-02-02T01:11:36;101997.63;;;5.43;93.64
60725;BME280;59881;36.722;-4.462;2023-02-02T01:14:02;102034.50;;;6.35;93.34
60725;BME280;59881;36.722;-4.462;2023-02-02T01:16:27;102022.31;;;6.34;93.80
60725;BME280;59881;36.722;-4.462;2023-02-02T01:18:53;101995.41;;;5.98;93.39
60725;BME280;59881;36.722;-4.462;2023-02-02T01:21:19;101937.53;;;5.76;93.36
60725;BME280;59881;36.722;-4.462;2023-02-02T01:23:45;101909.44;;;5.51;93.33
60725;BME280;59881;36.722;-4.462;2023-02-02T01:26:11;101986.16;;;5.83;93.04
60725;BME280;59881;36.722;-4.462;2023-02-02T01:28:37;102255.56;;;6.22;93.56
60725;BME280;59881;36.722;-4.462;2023-02-02T01:31:09;101992.66;;;6.03;93.97
60725;BME280;59881;36.722;-4.462;2023-02-02T01:33:35;101847.66;;;5.14;93.85
60725;BME280;59881;36.722;-4.462;2023-02-02T01:36:04;101964.22;;;5.89;93.97
60725;BME280;59881;36.722;-4.462;2023-02-02T01:38:30;102022.56;;;6.27;93.91
60725;BME280;59881;36.722;-4.462;2023-02-02T01:40:56;101961.47;;;5.95;94.15
60725;BME280;59881;36.722;-4.462;2023-02-02T01:43:27;102015.38;;;6.33;94.63
60725;BME280;59881;36.722;-4.462;2023-02-02T01:45:55;102035.41;;;6.34;94.30
60725;BME280;59881;36.722;-4.462;2023-02-02T01:48:25;102021.50;;;6.32;94.29
60725;BME280;59881;36.722;-4.462;2023-02-02T01:50:55;102012.94;;;6.27;93.83
60725;BME280;59881;36.722;-4.462;2023-02-02T01:53:22;102019.13;;;6.25;93.55
60725;BME280;59881;36.722;-4.462;2023-02-02T01:55:49;101547.44;;;3.43;93.44
60725;BME280;59881;36.722;-4.462;2023-02-02T01:58:27;102206.66;;;5.87;93.85
60725;BME280;59881;36.722;-4.462;2023-02-02T02:00:53;102114.66;;;6.07;94.45
60725;BME280;59881;36.722;-4.462;2023-02-02T02:03:26;101444.63;;;2.84;93.73
60725;BME280;59881;36.722;-4.462;2023-02-02T02:06:04;101965.81;;;5.96;94.09
60725;BME280;59881;36.722;-4.462;2023-02-02T02:08:38;102006.94;;;6.22;94.27
60725;BME280;59881;36.722;-4.462;2023-02-02T02:11:05;102010.38;;;6.24;94.02
60725;BME280;59881;36.722;-4.462;2023-02-02T02:13:32;102010.47;;;6.21;93.93
60725;BME280;59881;36.722;-4.462;2023-02-02T02:22:06;101975.59;;;5.88;94.11
60725;BME280;59881;36.722;-4.462;2023-02-02T02:28:32;102010.28;;;5.96;93.98
60725;BME280;59881;36.722;-4.462;2023-02-02T02:34:15;101980.41;;;5.69;93.69
60725;BME280;59881;36.722;-4.462;2023-02-02T02:36:58;101973.78;;;5.19;94.69
60725;BME280;59881;36.722;-4.462;2023-02-02T02:39:39;102006.16;;;5.86;94.77
60725;BME280;59881;36.722;-4.462;2023-02-02T02:42:15;102011.97;;;5.98;95.01
60725;BME280;59881;36.722;-4.462;2023-02-02T02:44:42;102014.47;;;6.01;94.50
60725;BME280;59881;36.722;-4.462;2023-02-02T02:47:08;102017.91;;;6.04;94.66
60725;BME280;59881;36.722;-4.462;2023-02-02T02:49:41;101993.78;;;5.91;94.44
60725;BME280;59881;36.722;-4.462;2023-02-02T02:52:07;101984.25;;;5.90;94.19
60725;BME280;59881;36.722;-4.462;2023-02-02T02:54:36;101995.34;;;5.99;94.06
60725;BME280;59881;36.722;-4.462;2023-02-02T03:05:25;101939.38;;;5.72;92.55
60725;BME280;59881;36.722;-4.462;2023-02-02T03:10:28;101959.78;;;5.91;91.68
60725;BME280;59881;36.722;-4.462;2023-02-02T03:12:55;102000.09;;;6.18;91.99
60725;BME280;59881;36.722;-4.462;2023-02-02T03:15:22;101971.75;;;6.03;91.01
60725;BME280;59881;36.722;-4.462;2023-02-02T03:17:49;101995.75;;;6.17;90.49
60725;BME280;59881;36.722;-4.462;2023-02-02T03:20:16;101492.59;;;3.11;89.90
60725;BME280;59881;36.722;-4.462;2023-02-02T03:22:42;101992.31;;;6.15;89.49
60725;BME280;59881;36.722;-4.462;2023-02-02T03:25:08;102137.88;;;6.19;89.98
60725;BME280;59881;36.722;-4.462;2023-02-02T03:27:36;101152.72;;;1.19;88.54
60725;BME280;59881;36.722;-4.462;2023-02-02T03:30:08;101990.25;;;6.26;88.47
60725;BME280;59881;36.722;-4.462;2023-02-02T03:32:35;101993.69;;;6.28;88.60
60725;BME280;59881;36.722;-4.462;2023-02-02T03:35:00;101954.06;;;6.11;87.69
60725;BME280;59881;36.722;-4.462;2023-02-02T03:37:26;101989.00;;;6.41;87.82
60725;BME280;59881;36.722;-4.462;2023-02-02T03:39:51;101952.78;;;6.26;86.99
60725;BME280;59881;36.722;-4.462;2023-02-02T03:42:17;101493.97;;;3.64;87.07
60725;BME280;59881;36.722;-4.462;2023-02-02T03:44:42;101869.97;;;5.92;86.92
60725;BME280;59881;36.722;-4.462;2023-02-02T03:47:08;101963.63;;;6.43;86.65
60725;BME280;59881;36.722;-4.462;2023-02-02T03:49:33;102004.22;;;6.58;85.65
60725;BME280;59881;36.722;-4.462;2023-02-02T03:51:59;101225.72;;;1.88;84.90
60725;BME280;59881;36.722;-4.462;2023-02-02T03:54:27;101887.09;;;5.71;85.44
60725;BME280;59881;36.722;-4.462;2023-02-02T03:56:52;101913.88;;;5.80;84.68
60725;BME280;59881;36.722;-4.462;2023-02-02T03:59:18;101939.88;;;5.87;84.71
60725;BME280;59881;36.722;-4.462;2023-02-02T04:01:43;101998.31;;;6.20;84.60
60725;BME280;59881;36.722;-4.462;2023-02-02T04:04:09;101870.38;;;5.45;84.46
60725;BME280;59881;36.722;-4.462;2023-02-02T04:06:34;101961.28;;;6.03;85.07
60725;BME280;59881;36.722;-4.462;2023-02-02T04:09:00;101960.28;;;6.07;85.39
60725;BME280;59881;36.722;-4.462;2023-02-02T04:11:25;101983.03;;;6.36;85.22
60725;BME280;59881;36.722;-4.462;2023-02-02T04:13:51;101986.53;;;6.35;85.38
60725;BME280;59881;36.722;-4.462;2023-02-02T04:16:16;101968.81;;;6.45;84.95
60725;BME280;59881;36.722;-4.462;2023-02-02T04:18:42;101993.34;;;6.72;84.71
60725;BME280;59881;36.722;-4.462;2023-02-02T04:21:07;101991.34;;;6.80;84.89
60725;BME280;59881;36.722;-4.462;2023-02-02T04:23:33;101998.00;;;6.90;84.87
60725;BME280;59881;36.722;-4.462;2023-02-02T04:25:59;101990.75;;;7.00;84.68
60725;BME280;59881;36.722;-4.462;2023-02-02T04:28:25;101636.16;;;4.47;84.01
60725;BME280;59881;36.722;-4.462;2023-02-02T04:30:52;101629.88;;;4.54;83.11
60725;BME280;59881;36.722;-4.462;2023-02-02T04:33:19;101959.00;;;6.81;83.18
60725;BME280;59881;36.722;-4.462;2023-02-02T04:35:45;101858.00;;;6.16;82.39
60725;BME280;59881;36.722;-4.462;2023-02-02T04:38:11;101991.25;;;6.83;81.97
60725;BME280;59881;36.722;-4.462;2023-02-02T04:40:38;101550.31;;;4.04;81.31
60725;BME280;59881;36.722;-4.462;2023-02-02T04:43:04;101956.56;;;6.47;81.27
60725;BME280;59881;36.722;-4.462;2023-02-02T04:45:29;101906.78;;;6.17;81.06
60725;BME280;59881;36.722;-4.462;2023-02-02T04:47:55;101926.69;;;6.22;80.91
60725;BME280;59881;36.722;-4.462;2023-02-02T04:50:21;101434.09;;;3.28;81.15
60725;BME280;59881;36.722;-4.462;2023-02-02T04:52:46;102015.50;;;6.60;80.86
60725;BME280;59881;36.722;-4.462;2023-02-02T04:55:12;101985.97;;;6.55;81.26
60725;BME280;59881;36.722;-4.462;2023-02-02T04:57:39;101988.44;;;6.59;81.18
60725;BME280;59881;36.722;-4.462;2023-02-02T05:00:05;101924.22;;;6.18;81.06
60725;BME280;59881;36.722;-4.462;2023-02-02T05:02:34;101960.31;;;6.36;81.55
60725;BME280;59881;36.722;-4.462;2023-02-02T05:05:00;101993.78;;;6.56;81.10
60725;BME280;59881;36.722;-4.462;2023-02-02T05:07:26;101995.47;;;6.57;81.11
60725;BME280;59881;36.722;-4.462;2023-02-02T05:09:51;102002.50;;;6.57;81.34
60725;BME280;59881;36.722;-4.462;2023-02-02T05:12:17;102001.59;;;6.58;81.58
60725;BME280;59881;36.722;-4.462;2023-02-02T05:14:42;102002.50;;;6.57;80.92
60725;BME280;59881;36.722;-4.462;2023-02-02T05:17:08;101924.38;;;6.12;81.22
60725;BME280;59881;36.722;-4.462;2023-02-02T05:19:33;101947.72;;;6.19;80.76
60725;BME280;59881;36.722;-4.462;2023-02-02T05:21:59;102010.63;;;6.48;81.49
60725;BME280;59881;36.722;-4.462;2023-02-02T05:24:24;101939.53;;;6.00;80.78
60725;BME280;59881;36.722;-4.462;2023-02-02T05:26:52;102132.88;;;6.44;80.69
60725;BME280;59881;36.722;-4.462;2023-02-02T05:29:19;102042.19;;;6.41;80.91
60725;BME280;59881;36.722;-4.462;2023-02-02T05:31:44;102014.44;;;6.36;80.55
60725;BME280;59881;36.722;-4.462;2023-02-02T05:34:10;101947.72;;;5.87;80.05
60725;BME280;59881;36.722;-4.462;2023-02-02T05:36:35;102015.81;;;6.18;80.76
60725;BME280;59881;36.722;-4.462;2023-02-02T05:39:01;102018.59;;;6.12;81.01
60725;BME280;59881;36.722;-4.462;2023-02-02T05:41:26;101546.94;;;3.27;80.74
60725;BME280;59881;36.722;-4.462;2023-02-02T05:43:52;101989.47;;;5.90;81.11
60725;BME280;59881;36.722;-4.462;2023-02-02T05:46:17;102022.22;;;6.06;81.72
60725;BME280;59881;36.722;-4.462;2023-02-02T05:48:43;101857.50;;;5.03;81.71
60725;BME280;59881;36.722;-4.462;2023-02-02T05:51:16;101957.88;;;5.65;81.31
60725;BME280;59881;36.722;-4.462;2023-02-02T05:53:43;101551.63;;;3.13;81.81
60725;BME280;59881;36.722;-4.462;2023-02-02T05:56:12;101997.72;;;5.74;82.09
60725;BME280;59881;36.722;-4.462;2023-02-02T05:58:38;102031.34;;;5.88;82.15
60725;BME280;59881;36.722;-4.462;2023-02-02T06:01:03;102041.06;;;5.85;82.13
60725;BME280;59881;36.722;-4.462;2023-02-02T06:03:29;101577.69;;;3.09;82.71
60725;BME280;59881;36.722;-4.462;2023-02-02T06:05:54;101519.56;;;2.68;82.74
60725;BME280;59881;36.722;-4.462;2023-02-02T06:08:20;102191.97;;;5.79;83.23
60725;BME280;59881;36.722;-4.462;2023-02-02T06:10:45;101666.31;;;3.05;83.46
60725;BME280;59881;36.722;-4.462;2023-02-02T06:13:11;102057.69;;;5.07;83.61
60725;BME280;59881;36.722;-4.462;2023-02-02T06:15:37;102048.97;;;5.81;84.01
60725;BME280;59881;36.722;-4.462;2023-02-02T06:18:03;102052.34;;;5.87;84.03
60725;BME280;59881;36.722;-4.462;2023-02-02T06:20:31;102061.72;;;5.95;84.26
60725;BME280;59881;36.722;-4.462;2023-02-02T06:22:56;101791.09;;;4.42;84.73
60725;BME280;59881;36.722;-4.462;2023-02-02T06:25:22;101867.50;;;4.86;84.03
60725;BME280;59881;36.722;-4.462;2023-02-02T06:27:47;101794.16;;;3.38;84.10
60725;BME280;59881;36.722;-4.462;2023-02-02T06:30:14;102002.13;;;5.72;83.92
60725;BME280;59881;36.722;-4.462;2023-02-02T06:32:40;102058.78;;;6.09;84.21
60725;BME280;59881;36.722;-4.462;2023-02-02T06:35:06;101922.25;;;5.26;84.17
60725;BME280;59881;36.722;-4.462;2023-02-02T06:37:31;102045.38;;;5.50;84.07
60725;BME280;59881;36.722;-4.462;2023-02-02T06:39:58;101989.16;;;5.68;84.66
60725;BME280;59881;36.722;-4.462;2023-02-02T06:42:24;102079.00;;;6.03;84.20
60725;BME280;59881;36.722;-4.462;2023-02-02T06:44:49;101877.94;;;4.87;84.14
60725;BME280;59881;36.722;-4.462;2023-02-02T06:47:15;101929.47;;;5.16;84.57
60725;BME280;59881;36.722;-4.462;2023-02-02T06:49:40;102060.22;;;5.85;84.02
60725;BME280;59881;36.722;-4.462;2023-02-02T06:52:06;101037.88;;;-0.28;84.11
60725;BME280;59881;36.722;-4.462;2023-02-02T06:54:32;102030.22;;;5.64;84.39
60725;BME280;59881;36.722;-4.462;2023-02-02T06:56:57;102031.25;;;5.57;84.56
60725;BME280;59881;36.722;-4.462;2023-02-02T06:59:23;101671.31;;;2.71;84.93
60725;BME280;59881;36.722;-4.462;2023-02-02T07:01:49;101401.88;;;1.20;85.09
60725;BME280;59881;36.722;-4.462;2023-02-02T07:04:18;101624.13;;;2.42;86.12
60725;BME280;59881;36.722;-4.462;2023-02-02T07:06:44;101666.41;;;2.54;85.48
60725;BME280;59881;36.722;-4.462;2023-02-02T07:09:09;101600.34;;;3.06;86.24
60725;BME280;59881;36.722;-4.462;2023-02-02T07:11:35;102221.66;;;6.17;86.29
60725;BME280;59881;36.722;-4.462;2023-02-02T07:14:01;101288.03;;;1.49;86.25
60725;BME280;59881;36.722;-4.462;2023-02-02T07:16:27;101818.41;;;3.86;85.97
60725;BME280;59881;36.722;-4.462;2023-02-02T07:18:52;101893.03;;;5.10;86.55
60725;BME280;59881;36.722;-4.462;2023-02-02T07:21:20;102074.06;;;6.25;86.98
60725;BME280;59881;36.722;-4.462;2023-02-02T07:23:46;102261.50;;;6.29;86.77
60725;BME280;59881;36.722;-4.462;2023-02-02T07:26:12;102075.50;;;6.36;86.98
60725;BME280;59881;36.722;-4.462;2023-02-02T07:28:39;101719.91;;;4.37;86.77
60725;BME280;59881;36.722;-4.462;2023-02-02T07:33:40;102293.91;;;6.96;86.64
60725;BME280;59881;36.722;-4.462;2023-02-02T07:36:06;101426.41;;;3.90;85.86
60725;BME280;59881;36.722;-4.462;2023-02-02T07:38:32;102067.84;;;9.01;84.86
60725;BME280;59881;36.722;-4.462;2023-02-02T07:40:59;101947.81;;;9.44;81.94
60725;BME280;59881;36.722;-4.462;2023-02-02T07:43:25;101945.75;;;10.52;77.11
60725;BME280;59881;36.722;-4.462;2023-02-02T07:45:51;101923.22;;;11.36;72.10
60725;BME280;59881;36.722;-4.462;2023-02-02T07:48:16;102056.19;;;13.05;67.09
60725;BME280;59881;36.722;-4.462;2023-02-02T07:50:42;101987.31;;;13.69;62.20
60725;BME280;59881;36.722;-4.462;2023-02-02T07:53:07;101724.78;;;12.42;57.29
60725;BME280;59881;36.722;-4.462;2023-02-02T07:55:33;102079.91;;;15.17;54.08
60725;BME280;59881;36.722;-4.462;2023-02-02T07:57:58;102055.34;;;16.20;51.48
60725;BME280;59881;36.722;-4.462;2023-02-02T08:00:24;102034.78;;;16.99;49.12
60725;BME280;59881;36.722;-4.462;2023-02-02T08:02:50;102012.69;;;17.58;46.40
60725;BME280;59881;36.722;-4.462;2023-02-02T08:05:16;101990.41;;;18.17;44.33
60725;BME280;59881;36.722;-4.462;2023-02-02T08:07:41;101661.31;;;16.74;42.68
60725;BME280;59881;36.722;-4.462;2023-02-02T08:10:09;101689.66;;;17.54;40.94
60725;BME280;59881;36.722;-4.462;2023-02-02T08:12:34;102052.53;;;20.37;39.45
60725;BME280;59881;36.722;-4.462;2023-02-02T08:15:00;102121.22;;;20.99;38.10
60725;BME280;59881;36.722;-4.462;2023-02-02T08:17:25;101633.09;;;18.90;36.85
60725;BME280;59881;36.722;-4.462;2023-02-02T08:19:51;102060.97;;;21.93;35.77
60725;BME280;59881;36.722;-4.462;2023-02-02T08:22:16;102063.97;;;22.46;34.75
60725;BME280;59881;36.722;-4.462;2023-02-02T08:24:42;102069.25;;;22.93;34.03
60725;BME280;59881;36.722;-4.462;2023-02-02T08:27:09;102072.56;;;23.51;33.20
60725;BME280;59881;36.722;-4.462;2023-02-02T08:29:35;102035.91;;;23.86;32.21
60725;BME280;59881;36.722;-4.462;2023-02-02T08:32:02;102097.41;;;24.69;31.21
60725;BME280;59881;36.722;-4.462;2023-02-02T08:34:28;102083.97;;;25.28;29.98
60725;BME280;59881;36.722;-4.462;2023-02-02T08:36:53;102090.97;;;25.96;28.87
60725;BME280;59881;36.722;-4.462;2023-02-02T08:39:19;102064.22;;;26.42;28.34
60725;BME280;59881;36.722;-4.462;2023-02-02T08:41:44;102090.41;;;26.97;27.62
60725;BME280;59881;36.722;-4.462;2023-02-02T08:44:12;102099.94;;;27.48;26.81
60725;BME280;59881;36.722;-4.462;2023-02-02T08:46:40;102099.84;;;28.02;25.95
60725;BME280;59881;36.722;-4.462;2023-02-02T08:49:06;102102.31;;;28.50;25.12
60725;BME280;59881;36.722;-4.462;2023-02-02T08:51:31;102078.63;;;28.73;24.60
60725;BME280;59881;36.722;-4.462;2023-02-02T08:53:57;102105.31;;;29.42;24.14
60725;BME280;59881;36.722;-4.462;2023-02-02T08:56:22;102104.31;;;29.86;23.55
60725;BME280;59881;36.722;-4.462;2023-02-02T08:58:51;101753.78;;;28.19;22.99
60725;BME280;59881;36.722;-4.462;2023-02-02T09:03:44;102116.06;;;31.40;21.82
60725;BME280;59881;36.722;-4.462;2023-02-02T09:06:12;102060.53;;;31.34;21.41
60725;BME280;59881;36.722;-4.462;2023-02-02T09:08:38;101798.75;;;30.30;20.78
60725;BME280;59881;36.722;-4.462;2023-02-02T09:11:17;102197.47;;;32.76;20.30
60725;BME280;59881;36.722;-4.462;2023-02-02T09:13:46;102127.59;;;33.27;19.97
60725;BME280;59881;36.722;-4.462;2023-02-02T09:16:16;102034.78;;;33.20;19.12
60725;BME280;59881;36.722;-4.462;2023-02-02T09:18:43;102120.69;;;34.31;18.38
60725;BME280;59881;36.722;-4.462;2023-02-02T09:21:11;102094.22;;;34.69;18.36
60725;BME280;59881;36.722;-4.462;2023-02-02T09:23:39;102126.66;;;35.32;17.48
60725;BME280;59881;36.722;-4.462;2023-02-02T09:28:43;102088.31;;;36.10;16.63
60725;BME280;59881;36.722;-4.462;2023-02-02T09:31:09;102134.28;;;36.78;16.75
60725;BME280;59881;36.722;-4.462;2023-02-02T09:33:35;102187.13;;;37.38;15.96
60725;BME280;59881;36.722;-4.462;2023-02-02T09:36:18;102135.38;;;37.97;15.34
60725;BME280;59881;36.722;-4.462;2023-02-02T09:38:47;102130.66;;;38.48;14.79
60725;BME280;59881;36.722;-4.462;2023-02-02T09:49:35;102142.34;;;40.82;13.24
60725;BME280;59881;36.722;-4.462;2023-02-02T09:52:11;102147.44;;;41.31;12.76
60725;BME280;59881;36.722;-4.462;2023-02-02T09:54:42;102157.69;;;41.82;12.21
60725;BME280;59881;36.722;-4.462;2023-02-02T09:57:18;102165.09;;;42.32;12.04
60725;BME280;59881;36.722;-4.462;2023-02-02T09:59:48;102108.38;;;42.20;11.76
60725;BME280;59881;36.722;-4.462;2023-02-02T10:02:23;102169.03;;;43.41;11.61
60725;BME280;59881;36.722;-4.462;2023-02-02T10:05:00;101923.03;;;41.94;11.37
60725;BME280;59881;36.722;-4.462;2023-02-02T10:07:36;102159.16;;;44.22;10.97
60725;BME280;59881;36.722;-4.462;2023-02-02T10:10:20;102156.00;;;44.77;10.31
60725;BME280;59881;36.722;-4.462;2023-02-02T10:12:59;102173.38;;;45.45;10.40
60725;BME280;59881;36.722;-4.462;2023-02-02T10:18:14;101912.81;;;44.42;9.52
60725;BME280;59881;36.722;-4.462;2023-02-02T10:20:58;102187.41;;;46.19;9.63
60725;BME280;59881;36.722;-4.462;2023-02-02T10:23:30;102168.41;;;46.35;9.88
60725;BME280;59881;36.722;-4.462;2023-02-02T10:26:10;101942.88;;;45.06;9.51
60725;BME280;59881;36.722;-4.462;2023-02-02T10:28:50;102202.69;;;46.77;9.59
60725;BME280;59881;36.722;-4.462;2023-02-02T10:34:00;102083.53;;;44.93;10.67
60725;BME280;59881;36.722;-4.462;2023-02-02T10:36:38;102199.03;;;46.08;10.02
60725;BME280;59881;36.722;-4.462;2023-02-02T10:44:32;102162.13;;;44.02;10.96
60725;BME280;59881;36.722;-4.462;2023-02-02T10:47:03;102164.34;;;43.76;10.99
60725;BME280;59881;36.722;-4.462;2023-02-02T10:49:35;102163.28;;;43.32;11.31
60725;BME280;59881;36.722;-4.462;2023-02-02T10:52:17;102055.47;;;42.86;10.90
60725;BME280;59881;36.722;-4.462;2023-02-02T11:03:04;102175.38;;;43.47;11.39
60725;BME280;59881;36.722;-4.462;2023-02-02T11:05:31;102168.41;;;43.10;11.66
60725;BME280;59881;36.722;-4.462;2023-02-02T11:08:24;102196.91;;;40.59;13.41
60725;BME280;59881;36.722;-4.462;2023-02-02T11:10:54;102174.66;;;31.97;19.88
60725;BME280;59881;36.722;-4.462;2023-02-02T11:13:28;102163.03;;;24.94;27.78
60725;BME280;59881;36.722;-4.462;2023-02-02T11:16:28;102227.75;;;21.17;34.72
60725;BME280;59881;36.722;-4.462;2023-02-02T11:18:54;102228.81;;;19.20;38.35
60725;BME280;59881;36.722;-4.462;2023-02-02T11:24:03;102235.03;;;17.41;43.17
60725;BME280;59881;36.722;-4.462;2023-02-02T11:26:42;102203.81;;;16.66;45.18
60725;BME280;59881;36.722;-4.462;2023-02-02T11:29:40;102036.38;;;15.46;45.74
60725;BME280;59881;36.722;-4.462;2023-02-02T11:32:30;102238.19;;;16.57;46.39
60725;BME280;59881;36.722;-4.462;2023-02-02T11:35:19;102228.59;;;16.41;47.32
60725;BME280;59881;36.722;-4.462;2023-02-02T11:42:59;102132.66;;;15.36;49.36
60725;BME280;59881;36.722;-4.462;2023-02-02T11:48:15;102209.47;;;14.81;50.44
60725;BME280;59881;36.722;-4.462;2023-02-02T11:50:46;102225.03;;;15.59;50.06
60725;BME280;59881;36.722;-4.462;2023-02-02T11:53:44;102225.50;;;15.37;50.29
60725;BME280;59881;36.722;-4.462;2023-02-02T11:56:18;101640.41;;;11.62;51.16
60725;BME280;59881;36.722;-4.462;2023-02-02T11:58:48;102163.97;;;14.43;51.61
60725;BME280;59881;36.722;-4.462;2023-02-02T12:01:29;102215.09;;;15.20;51.46
60725;BME280;59881;36.722;-4.462;2023-02-02T12:04:01;102203.03;;;15.14;52.04
60725;BME280;59881;36.722;-4.462;2023-02-02T12:06:37;102290.94;;;15.24;51.87
60725;BME280;59881;36.722;-4.462;2023-02-02T12:09:21;102198.94;;;15.23;52.27
60725;BME280;59881;36.722;-4.462;2023-02-02T12:12:08;102165.97;;;14.98;52.41
60725;BME280;59881;36.722;-4.462;2023-02-02T12:22:55;102150.41;;;14.92;53.41
60725;BME280;59881;36.722;-4.462;2023-02-02T12:25:57;102170.94;;;15.60;53.51
60725;BME280;59881;36.722;-4.462;2023-02-02T12:28:32;102174.03;;;15.67;52.01
60725;BME280;59881;36.722;-4.462;2023-02-02T12:36:46;101834.56;;;12.48;52.07
60725;BME280;59881;36.722;-4.462;2023-02-02T12:39:32;102147.38;;;15.41;51.97
60725;BME280;59881;36.722;-4.462;2023-02-02T12:53:27;101890.38;;;14.09;50.29
60725;BME280;59881;36.722;-4.462;2023-02-02T12:56:07;102131.44;;;15.68;50.03
60725;BME280;59881;36.722;-4.462;2023-02-02T13:07:25;102112.97;;;16.07;49.05
60725;BME280;59881;36.722;-4.462;2023-02-02T13:09:46;102112.66;;;15.99;48.86
60725;BME280;59881;36.722;-4.462;2023-02-02T13:12:17;102099.66;;;15.81;49.83
60725;BME280;59881;36.722;-4.462;2023-02-02T13:14:50;101782.41;;;13.27;49.63
60725;BME280;59881;36.722;-4.462;2023-02-02T13:17:22;102097.88;;;15.95;49.12
60725;BME280;59881;36.722;-4.462;2023-02-02T13:19:58;102092.97;;;15.88;48.88
60725;BME280;59881;36.722;-4.462;2023-02-02T13:22:33;101534.31;;;12.46;49.07
60725;BME280;59881;36.722;-4.462;2023-02-02T13:25:02;101955.53;;;14.83;49.34
60725;BME280;59881;36.722;-4.462;2023-02-02T13:27:29;102031.25;;;15.16;49.40
60725;BME280;59881;36.722;-4.462;2023-02-02T13:32:37;102089.00;;;15.13;51.27
60725;BME280;59881;36.722;-4.462;2023-02-02T13:35:14;101933.34;;;14.00;51.21
60725;BME280;59881;36.722;-4.462;2023-02-02T13:37:49;101921.50;;;13.91;51.19
60725;BME280;59881;36.722;-4.462;2023-02-02T13:40:33;102078.41;;;14.98;50.97
60725;BME280;59881;36.722;-4.462;2023-02-02T13:43:31;102059.19;;;14.80;50.73
60725;BME280;59881;36.722;-4.462;2023-02-02T13:49:03;102070.59;;;15.09;51.00
60725;BME280;59881;36.722;-4.462;2023-02-02T13:51:52;102073.38;;;15.08;51.44
60725;BME280;59881;36.722;-4.462;2023-02-02T14:00:03;102075.28;;;14.92;51.73
60725;BME280;59881;36.722;-4.462;2023-02-02T14:02:52;102062.13;;;14.76;52.69
60725;BME280;59881;36.722;-4.462;2023-02-02T14:05:31;101999.25;;;14.35;53.08
60725;BME280;59881;36.722;-4.462;2023-02-02T14:10:44;101910.59;;;13.67;53.18
60725;BME280;59881;36.722;-4.462;2023-02-02T14:16:42;102070.16;;;14.74;53.08
60725;BME280;59881;36.722;-4.462;2023-02-02T14:19:16;102068.94;;;14.80;52.51
60725;BME280;59881;36.722;-4.462;2023-02-02T14:26:58;102074.66;;;14.59;52.09
60725;BME280;59881;36.722;-4.462;2023-02-02T14:35:58;102082.38;;;14.48;52.68
60725;BME280;59881;36.722;-4.462;2023-02-02T14:38:10;102086.53;;;14.38;53.49
60725;BME280;59881;36.722;-4.462;2023-02-02T14:40:59;101614.63;;;11.51;53.78
60725;BME280;59881;36.722;-4.462;2023-02-02T14:43:35;102070.41;;;14.26;54.37
60725;BME280;59881;36.722;-4.462;2023-02-02T14:49:04;101482.00;;;10.85;53.69
60725;BME280;59881;36.722;-4.462;2023-02-02T14:51:40;102094.41;;;14.54;54.02
60725;BME280;59881;36.722;-4.462;2023-02-02T14:54:21;102096.66;;;14.45;54.44
60725;BME280;59881;36.722;-4.462;2023-02-02T14:56:56;102097.97;;;14.38;54.45
60725;BME280;59881;36.722;-4.462;2023-02-02T14:59:39;102091.34;;;14.31;54.04
60725;BME280;59881;36.722;-4.462;2023-02-02T15:04:39;102101.66;;;14.21;55.11
60725;BME280;59881;36.722;-4.462;2023-02-02T15:09:54;102103.06;;;13.97;54.50
60725;BME280;59881;36.722;-4.462;2023-02-02T15:15:22;102090.28;;;13.89;54.17
60725;BME280;59881;36.722;-4.462;2023-02-02T15:17:57;102194.81;;;13.99;53.74
60725;BME280;59881;36.722;-4.462;2023-02-02T15:21:00;102058.19;;;13.79;53.05